Flight Track Log - Related Links

Times and Time Zones

All times are in EST time to prevent confusion due to time zone crossing. See the CHH7668 flight status page for this flight to view local times or setup timezone preferences in your user account.

Time Position Orientation Groundspeed Altitude Reporting Facility
EST Latitude Longitude Course Direction KTS MPH feet Rate Location/Type
Sat 10:38:00 AM 32.4284 107.8215 20° North  Level Estimated
Sat 10:39:00 AM 32.5636 107.8824 21° North  Level Estimated
Sat 10:40:00 AM 32.6987 107.9434 21° North  Level Estimated
Sat 10:41:00 AM 32.8338 108.0046 21° North  Level Estimated
Sat 10:42:00 AM 32.9689 108.0660 21° North  Level Estimated
Sat 10:43:00 AM 33.1039 108.1276 21° North  Level Estimated
Sat 10:44:00 AM 33.2389 108.1894 21° North  Level Estimated
Sat 10:45:00 AM 33.3739 108.2514 21° North  Level Estimated
Sat 10:46:00 AM 33.5089 108.3135 21° North  Level Estimated
Sat 10:47:00 AM 33.6438 108.3759 21° North  Level Estimated
Sat 10:48:00 AM 33.7787 108.4385 21° North  Level Estimated
Sat 10:49:00 AM 33.9135 108.5012 21° North  Level Estimated
Sat 10:50:00 AM 34.0484 108.5641 21° North  Level Estimated
Sat 10:51:00 AM 34.1832 108.6273 21° North  Level Estimated
Sat 10:52:00 AM 34.3179 108.6907 21° North  Level Estimated
Sat 10:53:00 AM 34.4471 108.7516 21° North  Level Estimated
Sat 10:54:00 AM 34.4471 108.7516 121° Southeast  Level Estimated
Sat 10:55:00 AM 34.4471 108.7516 121° Southeast  Level Estimated
Sat 10:56:00 AM 34.4471 108.7516 121° Southeast  Level Estimated
Sat 10:57:00 AM 34.4471 108.7516 121° Southeast  Level Estimated
Sat 10:58:00 AM 34.4471 108.7516 121° Southeast  Level Estimated
Sat 10:59:00 AM 34.4471 108.7516 121° Southeast  Level Estimated
Sat 11:00:00 AM 34.4471 108.7516 121° Southeast  Level Estimated
Sat 11:01:00 AM 34.4471 108.7516 121° Southeast  Level Estimated
Sat 11:02:00 AM 34.4471 108.7516 121° Southeast  Level Estimated
Sat 11:03:00 AM 34.4471 108.7516 121° Southeast  Level Estimated
Sat 11:04:00 AM 34.4471 108.7516 121° Southeast  Level Estimated
Sat 11:05:00 AM 34.4471 108.7516 121° Southeast  Level Estimated
Sat 11:06:00 AM 34.4471 108.7516 121° Southeast  Level Estimated
Sat 11:07:00 AM 34.4471 108.7516 121° Southeast  Level Estimated

Login

Don't have an account? Register now (free) for customized features, flight alerts, and more!